createdAt,value
2019-02-19T00:01:45.242Z,43.63
2019-02-19T00:04:12.050Z,39.33
2019-02-19T00:06:39.193Z,36.93
2019-02-19T00:09:06.398Z,41.33
2019-02-19T00:11:33.388Z,39.50
2019-02-19T00:14:00.387Z,36.97
2019-02-19T00:16:27.371Z,44.53
2019-02-19T00:18:54.199Z,39.63
2019-02-19T00:21:21.300Z,42.13
2019-02-19T00:23:48.455Z,38.50
2019-02-19T00:26:16.091Z,38.20
2019-02-19T00:28:43.088Z,36.77
2019-02-19T00:31:10.161Z,39.60
2019-02-19T00:33:37.086Z,35.00
2019-02-19T00:36:04.959Z,41.07
2019-02-19T00:38:31.963Z,38.90
2019-02-19T00:41:01.977Z,41.63
2019-02-19T00:43:29.737Z,37.20
2019-02-19T00:45:56.596Z,38.07
2019-02-19T00:48:25.116Z,41.17
2019-02-19T00:50:51.966Z,36.80
2019-02-19T00:53:18.865Z,44.47
2019-02-19T00:55:45.707Z,36.70
2019-02-19T00:58:12.575Z,39.43
2019-02-19T01:00:40.264Z,41.53
2019-02-19T01:03:07.421Z,36.20
2019-02-19T01:05:34.366Z,40.60
2019-02-19T01:08:01.939Z,39.57
2019-02-19T01:10:29.081Z,35.83
2019-02-19T01:12:55.960Z,39.60
2019-02-19T01:15:25.461Z,35.03
2019-02-19T01:17:51.539Z,38.87
2019-02-19T01:20:18.370Z,41.37
2019-02-19T01:22:45.408Z,37.03
2019-02-19T01:25:12.333Z,37.13
2019-02-19T01:27:39.143Z,38.57
2019-02-19T01:30:07.724Z,39.63
2019-02-19T01:32:34.589Z,44.60
2019-02-19T01:35:01.733Z,35.83
2019-02-19T01:37:28.606Z,40.67
2019-02-19T01:39:55.492Z,34.60
2019-02-19T01:42:22.430Z,43.10
2019-02-19T01:44:49.313Z,40.53
2019-02-19T01:47:16.220Z,36.80
2019-02-19T01:49:43.093Z,36.60
2019-02-19T01:52:13.303Z,37.20
2019-02-19T01:54:40.113Z,38.73
2019-02-19T01:57:06.995Z,37.23
2019-02-19T01:59:33.823Z,35.33
2019-02-19T02:02:00.595Z,39.43
2019-02-19T02:04:27.612Z,40.30
2019-02-19T02:06:54.669Z,35.37
2019-02-19T02:09:21.560Z,36.90
2019-02-19T02:11:48.529Z,38.40
2019-02-19T02:14:15.365Z,37.27
2019-02-19T02:16:42.183Z,42.33
2019-02-19T02:19:08.959Z,39.30
2019-02-19T02:21:36.031Z,35.63
2019-02-19T02:24:02.877Z,38.00
2019-02-19T02:26:29.759Z,37.07
2019-02-19T02:28:56.595Z,37.53
2019-02-19T02:31:23.479Z,39.63
2019-02-19T02:33:50.266Z,43.30
2019-02-19T02:36:17.189Z,36.70
2019-02-19T02:38:44.001Z,40.63
2019-02-19T02:41:10.792Z,39.00
2019-02-19T02:43:37.756Z,38.73
2019-02-19T02:46:04.707Z,39.43
2019-02-19T02:48:34.650Z,36.00
2019-02-19T02:51:01.977Z,37.60
2019-02-19T02:53:28.796Z,37.63
2019-02-19T02:55:55.885Z,30.13
2019-02-19T02:58:22.721Z,38.20
2019-02-19T03:00:49.680Z,37.20
2019-02-19T03:03:18.270Z,34.37
2019-02-19T03:06:11.915Z,36.30
2019-02-19T03:08:38.724Z,38.13
2019-02-19T03:11:05.497Z,35.33
2019-02-19T03:13:32.437Z,34.80
2019-02-19T03:16:02.530Z,37.73
2019-02-19T03:18:27.960Z,37.07
2019-02-19T03:20:54.785Z,37.97
2019-02-19T03:23:21.624Z,31.10
2019-02-19T03:25:48.420Z,35.90
2019-02-19T03:28:15.269Z,37.20
2019-02-19T03:30:42.101Z,37.87
2019-02-19T03:33:09.084Z,40.27
2019-02-19T03:35:36.413Z,32.97
2019-02-19T03:38:03.221Z,31.40
2019-02-19T03:40:30.031Z,35.60
2019-02-19T03:42:56.843Z,34.50
2019-02-19T03:45:24.019Z,30.83
2019-02-19T03:47:50.884Z,31.27
2019-02-19T03:50:18.055Z,34.97
2019-02-19T03:52:44.987Z,33.27
2019-02-19T03:55:11.772Z,31.77
2019-02-19T03:57:38.992Z,33.23
2019-02-19T04:00:06.289Z,30.67
2019-02-19T04:02:33.146Z,37.00
2019-02-19T04:04:59.987Z,34.80
2019-02-19T04:07:26.872Z,32.27
2019-02-19T04:09:53.658Z,35.43
2019-02-19T04:12:20.530Z,33.30
2019-02-19T04:14:47.436Z,37.27
2019-02-19T04:17:14.217Z,33.73
2019-02-19T04:19:41.039Z,34.00
2019-02-19T04:22:07.937Z,33.67
2019-02-19T04:24:34.744Z,33.00
2019-02-19T04:27:01.976Z,36.40
2019-02-19T04:29:28.759Z,34.90
2019-02-19T04:31:55.545Z,34.03
2019-02-19T04:34:22.747Z,33.27
2019-02-19T04:36:49.569Z,33.93
2019-02-19T04:39:16.428Z,35.20
2019-02-19T04:41:43.256Z,30.13
2019-02-19T04:44:10.127Z,29.30
2019-02-19T04:46:36.927Z,33.20
2019-02-19T04:49:03.806Z,36.03
2019-02-19T04:51:30.585Z,34.03
2019-02-19T04:53:57.426Z,35.17
2019-02-19T04:56:24.373Z,30.37
2019-02-19T04:58:51.506Z,29.57
2019-02-19T05:01:18.618Z,32.20
2019-02-19T05:03:45.587Z,34.57
2019-02-19T05:06:12.420Z,27.47
2019-02-19T05:08:39.229Z,33.33
2019-02-19T05:11:06.068Z,32.07
2019-02-19T05:13:32.883Z,32.50
2019-02-19T05:15:59.790Z,28.73
2019-02-19T05:18:26.568Z,32.93
2019-02-19T05:20:53.396Z,32.30
2019-02-19T05:23:20.615Z,32.87
2019-02-19T05:25:47.453Z,31.00
2019-02-19T05:28:14.708Z,31.33
2019-02-19T05:30:43.053Z,34.07
2019-02-19T05:33:10.031Z,32.40
2019-02-19T05:35:36.807Z,34.70
2019-02-19T05:38:03.674Z,32.60
2019-02-19T05:40:30.521Z,37.97
2019-02-19T05:42:57.307Z,30.80
2019-02-19T05:45:24.097Z,32.43
2019-02-19T05:47:50.900Z,30.27
2019-02-19T05:50:17.674Z,27.27
2019-02-19T05:52:44.493Z,35.40
2019-02-19T05:55:11.536Z,26.40
2019-02-19T05:57:38.712Z,32.53
2019-02-19T06:00:06.500Z,31.07
2019-02-19T06:02:33.636Z,31.57
2019-02-19T06:05:00.448Z,27.40
2019-02-19T06:07:27.337Z,28.27
2019-02-19T06:09:54.193Z,32.73
2019-02-19T06:12:20.979Z,26.53
2019-02-19T06:14:47.835Z,30.70
2019-02-19T06:17:15.218Z,37.97
2019-02-19T06:19:42.026Z,37.40
2019-02-19T06:22:08.796Z,26.47
2019-02-19T06:24:35.639Z,32.27
2019-02-19T06:27:02.464Z,31.40
2019-02-19T06:29:29.340Z,37.17
2019-02-19T06:31:56.148Z,25.43
2019-02-19T06:34:22.978Z,31.53
2019-02-19T06:36:49.843Z,28.77
2019-02-19T06:39:16.971Z,27.80
2019-02-19T06:41:43.779Z,27.80
2019-02-19T06:44:10.586Z,31.77
2019-02-19T06:46:37.447Z,31.90
2019-02-19T06:49:04.292Z,29.33
2019-02-19T06:51:31.127Z,31.60
2019-02-19T06:53:58.064Z,28.37
2019-02-19T06:56:25.033Z,29.37
2019-02-19T06:58:51.815Z,32.07
2019-02-19T07:01:25.284Z,31.03
2019-02-19T07:03:58.669Z,29.90
2019-02-19T07:06:25.448Z,29.60
2019-02-19T07:08:52.300Z,29.80
2019-02-19T07:11:19.083Z,29.30
2019-02-19T07:13:45.900Z,32.50
2019-02-19T07:16:12.929Z,32.80
2019-02-19T07:18:39.741Z,31.80
2019-02-19T07:21:06.561Z,34.10
2019-02-19T07:23:33.432Z,34.40
2019-02-19T07:26:00.341Z,29.10
2019-02-19T07:28:27.120Z,40.93
2019-02-19T07:30:53.965Z,41.10
2019-02-19T07:33:20.803Z,34.17
2019-02-19T07:35:48.174Z,33.23
2019-02-19T07:38:15.551Z,39.10
2019-02-19T07:40:42.354Z,30.50
2019-02-19T07:43:09.509Z,33.70
2019-02-19T07:45:36.400Z,31.90
2019-02-19T07:48:03.264Z,36.13
2019-02-19T07:50:30.098Z,38.60
2019-02-19T07:52:57.033Z,35.13
2019-02-19T07:55:23.844Z,32.63
2019-02-19T07:57:50.741Z,30.40
2019-02-19T08:00:17.619Z,33.90
2019-02-19T08:02:44.528Z,27.87
2019-02-19T08:05:11.341Z,30.20
2019-02-19T08:07:38.215Z,31.73
2019-02-19T08:10:05.674Z,27.77
2019-02-19T08:12:32.508Z,28.73
2019-02-19T08:14:59.347Z,29.20
2019-02-19T08:17:33.096Z,29.97
2019-02-19T08:19:54.901Z,28.83
2019-02-19T08:22:21.684Z,29.80
2019-02-19T08:24:48.507Z,36.50
2019-02-19T08:27:15.393Z,31.37
2019-02-19T08:29:42.274Z,32.03
2019-02-19T08:32:09.083Z,28.63
2019-02-19T08:34:35.924Z,31.43
2019-02-19T08:37:02.815Z,29.20
2019-02-19T08:39:30.016Z,33.17
2019-02-19T08:41:56.893Z,30.30
2019-02-19T08:44:23.724Z,30.73
2019-02-19T08:46:50.862Z,33.17
2019-02-19T08:49:17.808Z,35.43
2019-02-19T08:51:44.672Z,32.53
2019-02-19T08:54:11.458Z,32.30
2019-02-19T08:56:38.264Z,31.13
2019-02-19T08:59:05.255Z,34.87
2019-02-19T09:01:32.136Z,32.30
2019-02-19T09:03:58.966Z,32.00
2019-02-19T09:06:27.573Z,29.73
2019-02-19T09:08:54.678Z,32.97
2019-02-19T09:11:21.482Z,29.53
2019-02-19T09:13:48.273Z,36.17
2019-02-19T09:16:15.152Z,37.40
2019-02-19T09:18:42.021Z,34.00
2019-02-19T09:21:09.098Z,33.87
2019-02-19T09:23:35.887Z,33.97
2019-02-19T09:26:02.848Z,37.70
2019-02-19T09:28:29.773Z,35.73
2019-02-19T09:30:56.898Z,38.13
2019-02-19T09:33:23.735Z,36.10
2019-02-19T09:35:50.615Z,41.33
2019-02-19T09:38:17.447Z,40.07
2019-02-19T09:40:44.578Z,34.60
2019-02-19T09:43:11.706Z,41.80
2019-02-19T09:45:38.606Z,37.77
2019-02-19T09:48:05.440Z,41.77
2019-02-19T09:50:32.347Z,37.73
2019-02-19T09:53:00.267Z,38.67
2019-02-19T09:55:27.385Z,42.20
2019-02-19T09:57:54.267Z,37.40
2019-02-19T10:00:21.284Z,38.93
2019-02-19T10:02:48.426Z,40.47
2019-02-19T10:05:15.582Z,37.10
2019-02-19T10:07:42.359Z,36.23
2019-02-19T10:10:09.904Z,38.27
2019-02-19T10:12:36.953Z,43.00
2019-02-19T10:15:04.065Z,43.53
2019-02-19T10:17:30.960Z,42.10
2019-02-19T10:19:58.081Z,43.03
2019-02-19T10:22:24.888Z,44.00
2019-02-19T10:24:52.431Z,38.53
2019-02-19T10:27:19.695Z,42.73
2019-02-19T10:29:46.677Z,42.00
2019-02-19T10:32:13.574Z,41.30
2019-02-19T10:34:40.393Z,40.10
2019-02-19T10:37:07.237Z,44.00
2019-02-19T10:39:34.127Z,37.70
2019-02-19T10:42:01.035Z,47.07
2019-02-19T10:44:27.861Z,46.10
2019-02-19T10:46:54.644Z,40.63
2019-02-19T10:49:21.660Z,41.43
2019-02-19T10:51:48.473Z,40.43
2019-02-19T10:54:15.282Z,45.17
2019-02-19T10:56:42.158Z,46.50
2019-02-19T10:59:08.969Z,45.37
2019-02-19T11:01:36.292Z,43.50
2019-02-19T11:04:03.126Z,44.23
2019-02-19T11:06:29.930Z,43.37
2019-02-19T11:08:56.799Z,45.60
2019-02-19T11:11:23.616Z,54.03
2019-02-19T11:13:50.387Z,36.77
2019-02-19T11:16:17.214Z,45.87
2019-02-19T11:18:44.049Z,37.87
2019-02-19T11:21:19.073Z,36.10
2019-02-19T11:23:39.504Z,44.57
2019-02-19T11:26:06.640Z,36.53
2019-02-19T11:28:33.533Z,41.47
2019-02-19T11:31:00.324Z,43.50
2019-02-19T11:33:27.158Z,39.83
2019-02-19T11:35:54.864Z,40.23
2019-02-19T11:38:21.844Z,36.03
2019-02-19T11:40:48.682Z,38.40
2019-02-19T11:43:15.792Z,40.10
2019-02-19T11:45:42.635Z,35.57
2019-02-19T11:48:09.419Z,38.47
2019-02-19T11:50:36.475Z,37.03
2019-02-19T11:53:03.377Z,33.50
2019-02-19T11:55:30.386Z,34.87
2019-02-19T11:57:57.207Z,35.40
2019-02-19T12:00:30.410Z,32.13
2019-02-19T12:02:57.307Z,31.90
2019-02-19T12:05:24.092Z,31.50
2019-02-19T12:07:50.960Z,33.77
2019-02-19T12:10:17.785Z,33.13
2019-02-19T12:12:44.568Z,35.60
2019-02-19T12:15:11.778Z,31.87
2019-02-19T12:17:38.794Z,33.77
2019-02-19T12:20:05.920Z,29.80
2019-02-19T12:22:32.878Z,29.30
2019-02-19T12:24:59.797Z,27.40
2019-02-19T12:27:26.652Z,32.37
2019-02-19T12:29:53.472Z,30.40
2019-02-19T12:32:20.817Z,39.43
2019-02-19T12:34:48.037Z,31.60
2019-02-19T12:37:15.002Z,35.20
2019-02-19T12:39:42.009Z,37.80
2019-02-19T12:42:08.844Z,29.60
2019-02-19T12:44:35.664Z,33.13
2019-02-19T12:47:02.560Z,31.33
2019-02-19T12:49:29.419Z,31.73
2019-02-19T12:51:56.693Z,31.83
2019-02-19T12:54:23.678Z,38.33
2019-02-19T12:56:50.893Z,37.33
2019-02-19T12:59:17.764Z,30.80
2019-02-19T13:01:44.601Z,32.10
2019-02-19T13:04:11.409Z,30.30
2019-02-19T13:06:38.212Z,35.43
2019-02-19T13:09:05.074Z,34.37
2019-02-19T13:11:32.037Z,32.37
2019-02-19T13:13:59.322Z,36.30
2019-02-19T13:16:26.182Z,31.83
2019-02-19T13:18:53.091Z,39.23
2019-02-19T13:21:19.993Z,31.20
2019-02-19T13:23:46.914Z,31.67
2019-02-19T13:26:13.945Z,32.17
2019-02-19T13:28:40.779Z,40.23
2019-02-19T13:31:07.647Z,35.43
2019-02-19T13:33:34.469Z,36.17
2019-02-19T13:36:01.848Z,36.23
2019-02-19T13:38:28.775Z,32.37
2019-02-19T13:40:56.028Z,34.90
2019-02-19T13:43:22.939Z,33.40
2019-02-19T13:45:49.987Z,31.23
2019-02-19T13:48:16.769Z,32.23
2019-02-19T13:50:44.695Z,28.53
2019-02-19T13:53:29.854Z,31.97
2019-02-19T13:55:57.900Z,27.17
2019-02-19T13:58:24.683Z,25.93
2019-02-19T14:00:51.753Z,27.87
2019-02-19T14:03:18.684Z,25.30
2019-02-19T14:05:45.475Z,23.97
2019-02-19T14:08:14.817Z,30.90
2019-02-19T14:10:41.238Z,24.60
2019-02-19T14:13:08.052Z,24.43
2019-02-19T14:15:41.327Z,26.70
2019-02-19T14:18:08.882Z,24.43
2019-02-19T14:20:43.725Z,23.87
2019-02-19T14:23:34.470Z,23.07
2019-02-19T14:26:19.985Z,30.80
2019-02-19T14:28:57.705Z,35.60
2019-02-19T14:31:36.949Z,27.43
2019-02-19T14:34:38.785Z,23.97
2019-02-19T14:37:32.279Z,23.50
2019-02-19T14:40:10.363Z,26.43
2019-02-19T14:43:13.055Z,22.90
2019-02-19T14:45:59.585Z,26.60
2019-02-19T14:48:48.747Z,24.90
2019-02-19T14:51:34.029Z,20.43
2019-02-19T14:54:20.583Z,29.50
2019-02-19T14:56:55.449Z,21.07
2019-02-19T14:59:46.748Z,31.73
2019-02-19T15:02:28.793Z,24.67
2019-02-19T15:05:14.180Z,27.13
2019-02-19T15:08:06.084Z,19.60
2019-02-19T15:10:52.855Z,23.63
2019-02-19T15:13:30.101Z,22.43
2019-02-19T15:16:06.839Z,20.33
2019-02-19T15:19:00.697Z,24.47
2019-02-19T15:21:46.487Z,18.40
2019-02-19T15:24:38.911Z,21.30
2019-02-19T15:27:15.178Z,19.60
2019-02-19T15:30:00.352Z,18.30
2019-02-19T15:32:50.061Z,21.37
2019-02-19T15:35:31.484Z,18.03
2019-02-19T15:38:16.928Z,20.90
2019-02-19T15:41:02.199Z,30.83
2019-02-19T15:43:49.055Z,19.03
2019-02-19T15:46:33.457Z,25.37
2019-02-19T15:49:13.811Z,22.43
2019-02-19T15:51:50.017Z,21.07
2019-02-19T15:54:35.369Z,21.30
2019-02-19T15:57:20.676Z,18.53
2019-02-19T16:00:06.453Z,12.60
2019-02-19T16:02:51.486Z,20.87
2019-02-19T16:05:36.873Z,26.73
2019-02-19T16:08:16.412Z,43.53
2019-02-19T16:10:52.820Z,28.00
2019-02-19T16:13:39.595Z,21.83
2019-02-19T16:16:18.712Z,24.43
2019-02-19T16:18:59.884Z,16.10
2019-02-19T16:21:38.256Z,17.83
2019-02-19T16:24:39.570Z,20.07
2019-02-19T16:27:30.491Z,16.03
2019-02-19T16:30:06.901Z,25.87
2019-02-19T16:32:40.059Z,19.20
2019-02-19T16:35:20.955Z,16.00
2019-02-19T16:37:55.082Z,15.70
2019-02-19T16:40:31.701Z,14.70
2019-02-19T16:43:09.284Z,19.60
2019-02-19T16:45:47.421Z,16.40
2019-02-19T16:48:25.733Z,18.00
2019-02-19T16:51:01.644Z,15.73
2019-02-19T16:53:35.394Z,17.93
2019-02-19T16:56:18.092Z,14.03
2019-02-19T16:59:16.613Z,12.27
2019-02-19T17:01:50.952Z,15.10
2019-02-19T17:04:36.068Z,18.20
2019-02-19T17:07:08.778Z,10.47
2019-02-19T17:10:13.784Z,16.27
2019-02-19T17:12:48.516Z,18.50
2019-02-19T17:15:26.067Z,16.30
2019-02-19T17:18:16.348Z,23.53
2019-02-19T17:20:54.313Z,11.77
2019-02-19T17:23:40.936Z,16.63
2019-02-19T17:26:25.013Z,17.97
2019-02-19T17:29:10.191Z,16.93
2019-02-19T17:31:59.462Z,16.60
2019-02-19T17:34:43.480Z,19.33
2019-02-19T17:37:27.402Z,19.63
2019-02-19T17:40:08.076Z,18.80
2019-02-19T17:42:45.668Z,18.67
2019-02-19T17:45:34.976Z,20.40
2019-02-19T17:48:21.798Z,19.00
2019-02-19T17:50:57.108Z,23.77
2019-02-19T17:53:37.724Z,20.40
2019-02-19T17:56:27.392Z,21.73
2019-02-19T17:59:16.945Z,23.67
2019-02-19T18:01:53.392Z,13.23
2019-02-19T18:04:36.426Z,15.40
2019-02-19T18:07:12.662Z,13.50
2019-02-19T18:09:59.225Z,13.10
2019-02-19T18:12:43.853Z,10.87
2019-02-19T18:15:30.616Z,15.83
2019-02-19T18:18:08.969Z,13.13
2019-02-19T18:20:35.909Z,8.33
2019-02-19T18:23:02.831Z,14.23
2019-02-19T18:25:29.620Z,15.43
2019-02-19T18:27:56.576Z,15.40
2019-02-19T18:30:23.826Z,14.73
2019-02-19T18:32:50.796Z,13.33
2019-02-19T18:35:17.708Z,20.93
2019-02-19T18:37:44.705Z,10.90
2019-02-19T18:40:11.540Z,9.40
2019-02-19T18:42:38.561Z,12.83
2019-02-19T18:45:05.993Z,9.73
2019-02-19T18:47:32.925Z,17.30
2019-02-19T18:49:59.970Z,13.40
2019-02-19T18:52:26.885Z,9.87
2019-02-19T18:54:54.127Z,13.40
2019-02-19T18:57:21.078Z,13.70
2019-02-19T18:59:47.988Z,12.03
2019-02-19T19:02:14.939Z,15.63
2019-02-19T19:04:41.933Z,12.43
2019-02-19T19:07:08.731Z,12.80
2019-02-19T19:09:35.660Z,9.27
2019-02-19T19:12:02.736Z,15.37
2019-02-19T19:14:29.739Z,15.30
2019-02-19T19:16:56.566Z,11.47
2019-02-19T19:19:23.575Z,17.10
2019-02-19T19:21:50.620Z,10.43
2019-02-19T19:24:17.451Z,9.70
2019-02-19T19:26:44.709Z,9.67
2019-02-19T19:29:12.601Z,13.40
2019-02-19T19:31:40.949Z,10.53
2019-02-19T19:34:07.835Z,8.33
2019-02-19T19:36:34.737Z,10.77
2019-02-19T19:39:02.037Z,12.67
2019-02-19T19:41:29.377Z,13.27
2019-02-19T19:43:56.261Z,18.50
2019-02-19T19:46:23.333Z,12.60
2019-02-19T19:48:50.135Z,14.87
2019-02-19T19:51:17.368Z,17.03
2019-02-19T19:53:44.608Z,15.30
2019-02-19T19:56:11.743Z,15.27
2019-02-19T19:58:38.633Z,16.80
2019-02-19T20:01:05.614Z,21.20
2019-02-19T20:03:32.573Z,12.30
2019-02-19T20:05:59.580Z,13.60
2019-02-19T20:08:26.457Z,15.07
2019-02-19T20:10:53.366Z,14.57
2019-02-19T20:13:20.612Z,22.97
2019-02-19T20:15:47.505Z,16.43
2019-02-19T20:18:14.381Z,14.57
2019-02-19T20:20:41.721Z,15.30
2019-02-19T20:23:08.661Z,12.73
2019-02-19T20:25:35.481Z,15.73
2019-02-19T20:28:03.515Z,13.23
2019-02-19T20:30:30.501Z,14.67
2019-02-19T20:32:57.660Z,11.40
2019-02-19T20:35:24.799Z,13.53
2019-02-19T20:37:54.055Z,21.60
2019-02-19T20:40:21.632Z,17.37
2019-02-19T20:42:48.464Z,12.17
2019-02-19T20:45:15.341Z,20.10
2019-02-19T20:47:42.408Z,15.67
2019-02-19T20:50:09.397Z,42.33
2019-02-19T20:52:36.257Z,22.10
2019-02-19T20:55:03.449Z,37.47
2019-02-19T20:57:30.266Z,19.63
2019-02-19T20:59:57.557Z,16.13
2019-02-19T21:02:24.353Z,22.23
2019-02-19T21:04:51.159Z,17.10
2019-02-19T21:07:17.944Z,23.83
2019-02-19T21:09:44.773Z,19.93
2019-02-19T21:12:11.691Z,17.03
2019-02-19T21:14:38.602Z,19.57
2019-02-19T21:17:11.170Z,23.33
2019-02-19T21:19:38.061Z,17.93
2019-02-19T21:22:08.817Z,17.63
2019-02-19T21:24:35.741Z,16.87
2019-02-19T21:27:03.804Z,22.90
2019-02-19T21:29:30.596Z,29.13
2019-02-19T21:31:57.426Z,26.80
2019-02-19T21:34:24.254Z,20.73
2019-02-19T21:36:51.065Z,16.57
2019-02-19T21:39:17.915Z,23.00
2019-02-19T21:41:45.119Z,20.90
2019-02-19T21:44:11.958Z,19.60
2019-02-19T21:46:38.772Z,17.13
2019-02-19T21:49:05.579Z,16.40
2019-02-19T21:51:32.380Z,17.47
2019-02-19T21:53:59.542Z,20.13
2019-02-19T21:56:26.454Z,27.40
2019-02-19T21:58:53.384Z,17.00
2019-02-19T22:01:20.197Z,18.37
2019-02-19T22:03:47.052Z,27.17
2019-02-19T22:06:13.914Z,20.10
2019-02-19T22:08:40.802Z,18.73
2019-02-19T22:11:07.636Z,22.77
2019-02-19T22:13:34.510Z,15.00
2019-02-19T22:16:01.363Z,14.83
2019-02-19T22:18:28.261Z,15.63
2019-02-19T22:21:06.116Z,12.80
2019-02-19T22:23:33.056Z,13.87
2019-02-19T22:26:00.185Z,18.60
2019-02-19T22:28:27.060Z,11.37
2019-02-19T22:30:53.978Z,15.43
2019-02-19T22:33:20.902Z,10.67
2019-02-19T22:35:49.838Z,19.40
2019-02-19T22:38:16.527Z,16.97
2019-02-19T22:40:43.361Z,17.00
2019-02-19T22:43:10.476Z,12.00
2019-02-19T22:45:37.586Z,9.70
2019-02-19T22:48:04.846Z,9.80
2019-02-19T22:50:32.764Z,10.80
2019-02-19T22:52:59.590Z,12.93
2019-02-19T22:55:54.355Z,11.47
2019-02-19T22:58:22.334Z,11.03
2019-02-19T23:00:57.947Z,11.03
2019-02-19T23:03:25.801Z,12.67
2019-02-19T23:05:52.623Z,11.60
2019-02-19T23:08:19.879Z,13.03
2019-02-19T23:10:46.693Z,23.70
2019-02-19T23:13:13.617Z,23.97
2019-02-19T23:15:40.628Z,26.47
2019-02-19T23:18:07.534Z,14.57
2019-02-19T23:20:34.316Z,32.13
2019-02-19T23:23:01.153Z,32.87
2019-02-19T23:25:28.199Z,25.83
2019-02-19T23:27:55.034Z,22.63
2019-02-19T23:30:21.944Z,20.50
2019-02-19T23:32:48.755Z,18.77
2019-02-19T23:35:22.268Z,19.27
2019-02-19T23:37:49.180Z,18.20
2019-02-19T23:40:16.060Z,19.80
2019-02-19T23:42:42.861Z,16.03
2019-02-19T23:45:09.704Z,35.30
2019-02-19T23:47:36.604Z,24.57
2019-02-19T23:50:03.722Z,28.83
2019-02-19T23:52:30.795Z,50.63
2019-02-19T23:54:57.642Z,33.50
2019-02-19T23:57:24.821Z,30.23
2019-02-19T23:59:51.683Z,41.53
